Time;durP1;ratioP1;P1;durP2;ratioP2;P2;SDS_P1;SDS_P2;PMS_P1;PMS_P2;Temp;Humidity;BMP_temperature;BMP_pressure;BME280_temperature;BME280_humidity;BME280_pressure;Samples;Min_cycle;Max_cycle;Signal;HPM_P1;HPM_P2
2022/08/02 04:00:26;;;;;;;4.10;3.80;;;19.80;99.90;;;;;;6064063;23;20396;31
2022/08/02 04:02:54;;;;;;;3.70;3.50;;;19.70;99.90;;;;;;4900086;29;20512;-63
2022/08/02 04:05:21;;;;;;;4.37;4.17;;;19.70;99.90;;;;;;4901330;29;20461;-63
2022/08/02 04:07:49;;;;;;;6.00;3.83;;;19.70;99.90;;;;;;4901180;29;20957;-65
2022/08/02 04:10:16;;;;;;;5.60;3.50;;;19.70;99.90;;;;;;4902645;29;20465;-65
2022/08/02 04:12:43;;;;;;;5.13;4.00;;;19.70;99.90;;;;;;4920317;29;20461;-63
2022/08/02 04:15:14;;;;;;;3.47;3.27;;;19.80;99.90;;;;;;4920509;29;20457;-64
2022/08/02 04:17:45;;;;;;;6.80;4.10;;;19.80;99.90;;;;;;4923156;29;20445;-64
2022/08/02 04:20:19;;;;;;;3.57;3.30;;;19.80;99.90;;;;;;4923133;29;20493;-64
2022/08/02 04:22:49;;;;;;;4.67;4.00;;;19.80;99.90;;;;;;4923043;29;20796;-64
2022/08/02 04:25:19;;;;;;;10.83;3.90;;;19.80;99.90;;;;;;4921561;29;20453;-65
2022/08/02 04:27:47;;;;;;;4.73;4.20;;;19.80;99.90;;;;;;4920213;29;20449;-64
2022/08/02 04:30:15;;;;;;;4.60;4.30;;;19.80;99.90;;;;;;4919921;29;20456;-64
2022/08/02 04:32:44;;;;;;;4.17;3.87;;;19.80;99.90;;;;;;4920016;29;20461;-64
2022/08/02 04:35:11;;;;;;;4.83;4.33;;;19.90;99.90;;;;;;4920085;29;20464;-65
2022/08/02 04:37:40;;;;;;;4.60;4.30;;;19.90;99.90;;;;;;4919712;29;20470;-65
2022/08/02 04:40:09;;;;;;;3.93;3.60;;;19.90;99.90;;;;;;4919983;29;20453;-64
2022/08/02 04:42:36;;;;;;;5.50;4.90;;;19.90;99.90;;;;;;4920151;29;20457;-64
2022/08/02 04:45:04;;;;;;;4.87;4.43;;;20.00;99.90;;;;;;4919591;29;20952;-64
2022/08/02 04:47:31;;;;;;;5.07;4.57;;;20.00;99.90;;;;;;4919926;29;20457;-64
2022/08/02 04:49:58;;;;;;;6.23;5.10;;;20.00;99.90;;;;;;4920569;29;20468;-64
2022/08/02 04:52:25;;;;;;;9.40;5.10;;;20.00;99.90;;;;;;4920560;29;20484;-65
2022/08/02 04:54:53;;;;;;;5.03;4.50;;;19.90;99.90;;;;;;4919657;29;20840;-65
2022/08/02 05:00:06;;;;;;;6.17;4.50;;;20.00;99.90;;;;;;4919353;29;20425;-66
2022/08/02 05:02:33;;;;;;;5.67;4.60;;;20.20;99.90;;;;;;4919474;29;20528;-65
2022/08/02 05:05:00;;;;;;;3.90;3.60;;;20.30;99.90;;;;;;4919709;29;20461;-66
2022/08/02 05:07:27;;;;;;;5.37;4.83;;;20.40;99.90;;;;;;4919394;29;20482;-66
2022/08/02 05:09:55;;;;;;;4.50;4.20;;;20.50;99.90;;;;;;4919297;29;20939;-67
2022/08/02 05:12:23;;;;;;;4.47;4.07;;;20.60;99.90;;;;;;4919391;29;20478;-66
2022/08/02 05:14:49;;;;;;;4.80;4.40;;;20.70;99.90;;;;;;4919620;29;20461;-66
2022/08/02 05:17:16;;;;;;;4.67;4.30;;;20.80;99.90;;;;;;4919269;29;20464;-66
2022/08/02 05:19:43;;;;;;;4.60;4.20;;;21.00;99.90;;;;;;4918945;29;20461;-66
2022/08/02 05:22:10;;;;;;;3.90;3.60;;;21.20;99.90;;;;;;4919063;29;20489;-66
2022/08/02 05:24:37;;;;;;;5.40;3.80;;;21.30;99.90;;;;;;4919361;29;20468;-66
2022/08/02 05:27:05;;;;;;;5.10;4.57;;;21.40;99.90;;;;;;4919576;29;20457;-66
2022/08/02 05:29:31;;;;;;;5.47;4.17;;;21.50;99.90;;;;;;4920100;29;20484;-66
2022/08/02 05:31:58;;;;;;;4.30;3.97;;;21.50;99.90;;;;;;4919016;29;20481;-66
2022/08/02 05:34:25;;;;;;;10.10;4.13;;;21.60;99.90;;;;;;4918704;29;20457;-66
2022/08/02 05:36:52;;;;;;;5.70;5.10;;;21.70;99.90;;;;;;4918442;29;20995;-66
2022/08/02 05:39:18;;;;;;;9.47;4.50;;;21.70;99.90;;;;;;4918697;29;20462;-66
2022/08/02 05:41:45;;;;;;;5.23;4.73;;;21.80;99.90;;;;;;4918217;29;20488;-66
2022/08/02 05:44:13;;;;;;;4.37;4.00;;;21.90;99.90;;;;;;4918600;29;20457;-66
2022/08/02 05:46:40;;;;;;;4.53;4.00;;;22.10;99.90;;;;;;4918482;29;20453;-66
2022/08/02 05:49:06;;;;;;;4.37;3.83;;;22.20;99.90;;;;;;4918363;29;20513;-66
2022/08/02 05:51:37;;;;;;;5.37;4.27;;;22.30;99.90;;;;;;4918662;29;20478;-66
2022/08/02 05:54:15;;;;;;;3.90;3.60;;;22.40;99.90;;;;;;4918458;29;20442;-66
2022/08/02 05:56:50;;;;;;;4.10;3.67;;;22.50;99.90;;;;;;4918461;29;20803;-66
2022/08/02 05:59:31;;;;;;;3.50;3.20;;;22.70;99.90;;;;;;4918465;29;20463;-66
2022/08/02 06:02:02;;;;;;;4.30;3.67;;;22.90;99.90;;;;;;4918071;29;20540;-66
2022/08/02 06:04:37;;;;;;;8.07;4.40;;;23.00;99.90;;;;;;4918346;29;20477;-66
2022/08/02 06:07:05;;;;;;;4.70;4.40;;;23.10;99.90;;;;;;4918686;29;20437;-66
2022/08/02 06:09:33;;;;;;;4.43;3.73;;;23.30;99.90;;;;;;4918164;29;20987;-66
2022/08/02 06:12:02;;;;;;;6.13;3.83;;;23.30;99.90;;;;;;4917822;29;20486;-66
2022/08/02 06:14:32;;;;;;;6.90;3.80;;;23.30;99.90;;;;;;4918128;29;20817;-66
2022/08/02 06:17:00;;;;;;;3.70;3.20;;;23.50;99.90;;;;;;4918083;29;20517;-64
2022/08/02 06:19:27;;;;;;;3.67;3.47;;;23.60;99.90;;;;;;4917380;29;20464;-64
2022/08/02 06:21:55;;;;;;;4.30;4.00;;;23.80;99.90;;;;;;4917749;29;20481;-64
2022/08/02 06:24:23;;;;;;;3.80;3.57;;;23.90;99.90;;;;;;4917892;29;20499;-64
2022/08/02 06:26:51;;;;;;;4.10;3.27;;;24.20;99.90;;;;;;4917959;29;20457;-64
2022/08/02 06:29:20;;;;;;;5.10;3.80;;;24.50;99.90;;;;;;4917838;29;20536;-64
2022/08/02 06:31:49;;;;;;;3.73;3.43;;;24.90;99.90;;;;;;4917781;29;20481;-63
2022/08/02 06:34:16;;;;;;;4.30;4.00;;;25.30;99.90;;;;;;4923515;29;20457;-63
2022/08/02 06:36:50;;;;;;;5.77;4.43;;;25.70;99.90;;;;;;4921676;29;20516;-63
2022/08/02 06:39:22;;;;;;;3.40;3.10;;;26.00;99.90;;;;;;4919019;29;20819;-63
2022/08/02 06:41:51;;;;;;;3.60;3.40;;;26.30;99.90;;;;;;4917777;29;20493;-63
2022/08/02 06:44:18;;;;;;;3.60;3.33;;;26.70;99.90;;;;;;4917757;29;20458;-63
2022/08/02 06:46:45;;;;;;;4.13;3.83;;;27.10;99.90;;;;;;4917918;29;20461;-63
2022/08/02 06:49:13;;;;;;;4.50;4.10;;;27.50;99.90;;;;;;4917828;29;20457;-65
2022/08/02 06:51:40;;;;;;;5.83;4.30;;;27.70;99.90;;;;;;4917572;29;20532;-64
2022/08/02 06:54:07;;;;;;;5.27;3.83;;;27.70;99.90;;;;;;4917794;29;20457;-64
2022/08/02 06:56:34;;;;;;;5.57;3.70;;;27.70;99.90;;;;;;4917199;29;20458;-64
2022/08/02 06:59:00;;;;;;;4.13;3.83;;;27.90;99.90;;;;;;4917463;29;20457;-64
2022/08/02 07:01:27;;;;;;;3.97;3.60;;;28.00;99.90;;;;;;4917095;29;20500;-63
2022/08/02 07:03:54;;;;;;;4.93;4.53;;;28.30;99.90;;;;;;4917078;29;20952;-63
2022/08/02 07:06:22;;;;;;;4.63;4.23;;;28.20;99.90;;;;;;4917412;29;20461;-64
2022/08/02 07:08:49;;;;;;;6.27;3.37;;;28.50;99.90;;;;;;4917282;29;20485;-64
2022/08/02 07:11:15;;;;;;;5.47;4.10;;;28.90;99.90;;;;;;4916996;29;21059;-64
2022/08/02 07:13:42;;;;;;;4.43;4.20;;;29.10;99.20;;;;;;4917357;29;20461;-64
2022/08/02 07:16:10;;;;;;;5.43;3.60;;;29.30;98.30;;;;;;4917028;29;20457;-64
2022/08/02 07:18:36;;;;;;;5.03;4.63;;;29.60;97.30;;;;;;4917232;29;20461;-64
2022/08/02 07:21:05;;;;;;;6.43;4.37;;;29.70;96.20;;;;;;4917165;29;20528;-64
2022/08/02 07:23:33;;;;;;;5.10;4.30;;;29.90;96.10;;;;;;4917195;29;20461;-64
2022/08/02 07:26:00;;;;;;;4.87;4.37;;;30.20;95.40;;;;;;4917303;29;20460;-64
2022/08/02 07:28:27;;;;;;;6.33;4.80;;;30.50;94.90;;;;;;4917347;29;20491;-65
2022/08/02 07:30:54;;;;;;;4.87;4.57;;;30.90;92.40;;;;;;4917452;29;20485;-65
2022/08/02 07:33:21;;;;;;;5.40;4.57;;;30.70;92.20;;;;;;4920726;29;20468;-64
2022/08/02 07:35:47;;;;;;;4.37;4.07;;;31.00;92.70;;;;;;4920608;29;20974;-64
2022/08/02 07:38:14;;;;;;;5.50;5.10;;;31.10;91.20;;;;;;4921316;29;20464;-64
2022/08/02 07:40:42;;;;;;;4.50;4.20;;;31.20;90.80;;;;;;4921036;29;20518;-64
2022/08/02 07:43:09;;;;;;;4.23;3.93;;;31.40;89.70;;;;;;4920687;29;20481;-64
2022/08/02 07:45:35;;;;;;;4.90;4.50;;;31.60;90.70;;;;;;4920392;29;20947;-64
2022/08/02 07:48:02;;;;;;;4.97;4.57;;;31.70;88.10;;;;;;4920413;29;20948;-64
2022/08/02 07:50:29;;;;;;;7.13;4.40;;;31.90;85.50;;;;;;4920776;29;20461;-64
2022/08/02 07:52:55;;;;;;;4.70;4.30;;;32.10;86.70;;;;;;4920554;29;20796;-64
2022/08/02 07:55:22;;;;;;;4.57;3.83;;;32.50;82.90;;;;;;4920618;29;20461;-64
2022/08/02 07:57:51;;;;;;;5.13;4.60;;;32.70;82.60;;;;;;4921320;29;20493;-65
2022/08/02 08:00:18;;;;;;;4.60;4.30;;;32.80;83.10;;;;;;4920906;29;20833;-65
2022/08/02 08:02:46;;;;;;;4.93;4.53;;;33.00;80.90;;;;;;4921213;29;20471;-66
2022/08/02 08:05:13;;;;;;;5.03;4.73;;;32.70;79.60;;;;;;4920378;29;20484;-65
2022/08/02 08:07:40;;;;;;;5.07;4.60;;;32.60;78.10;;;;;;4920166;29;20940;-66
2022/08/02 08:10:08;;;;;;;4.87;4.57;;;32.40;80.90;;;;;;4920482;29;20520;-64
2022/08/02 08:12:35;;;;;;;6.00;4.27;;;32.60;79.40;;;;;;4919787;29;20477;-65
2022/08/02 08:15:03;;;;;;;4.90;4.60;;;32.80;78.30;;;;;;4920290;29;20456;-65
2022/08/02 08:17:30;;;;;;;4.57;4.13;;;33.10;77.60;;;;;;4919996;29;20457;-65
2022/08/02 08:19:57;;;;;;;4.80;4.40;;;33.50;75.00;;;;;;4920212;29;20551;-65
2022/08/02 08:22:24;;;;;;;5.27;4.00;;;33.80;73.90;;;;;;4920211;29;20488;-65
2022/08/02 08:24:51;;;;;;;4.70;4.40;;;34.10;74.00;;;;;;4920417;29;20461;-65
2022/08/02 08:27:18;;;;;;;4.70;4.40;;;34.20;72.60;;;;;;4920013;29;20468;-65
2022/08/02 08:29:45;;;;;;;4.30;3.90;;;34.30;69.80;;;;;;4920109;29;20456;-66
2022/08/02 08:32:14;;;;;;;3.95;3.65;;;34.30;70.00;;;;;;4920492;29;20466;-64
2022/08/02 08:34:40;;;;;;;5.60;4.53;;;34.30;71.10;;;;;;4920632;29;20197;-66
2022/08/02 08:37:07;;;;;;;5.67;5.30;;;34.30;69.10;;;;;;4919884;29;20894;-65
2022/08/02 08:39:34;;;;;;;4.70;4.40;;;34.10;68.60;;;;;;4919466;29;20919;-65
2022/08/02 08:42:01;;;;;;;5.60;5.20;;;33.50;69.10;;;;;;4918953;29;20886;-65
2022/08/02 08:44:28;;;;;;;5.60;4.57;;;33.50;68.80;;;;;;4919773;29;20457;-66
2022/08/02 08:46:57;;;;;;;5.60;4.40;;;33.60;70.00;;;;;;4920277;29;20464;-65
2022/08/02 08:49:31;;;;;;;4.40;4.00;;;33.90;69.00;;;;;;4920042;29;20457;-65
2022/08/02 08:52:04;;;;;;;4.33;3.93;;;33.90;69.50;;;;;;4920138;29;20472;-65
2022/08/02 08:54:32;;;;;;;3.60;3.40;;;34.70;67.30;;;;;;4920742;29;20441;-66
2022/08/02 08:56:59;;;;;;;3.93;3.63;;;35.50;66.10;;;;;;4920287;29;20456;-66
2022/08/02 08:59:26;;;;;;;4.17;3.87;;;35.80;63.70;;;;;;4919826;29;20464;-66
2022/08/02 09:01:54;;;;;;;4.23;3.97;;;36.20;61.20;;;;;;4919616;29;20484;-66
2022/08/02 09:04:21;;;;;;;4.53;4.20;;;35.20;61.60;;;;;;4919488;29;20449;-66
2022/08/02 09:06:49;;;;;;;4.27;4.00;;;35.10;64.10;;;;;;4920237;29;20472;-66
2022/08/02 09:09:16;;;;;;;5.00;4.70;;;35.30;62.40;;;;;;4919485;29;20464;-65
2022/08/02 09:11:43;;;;;;;4.50;4.10;;;35.00;60.70;;;;;;4919181;29;20468;-67
2022/08/02 09:14:10;;;;;;;5.37;4.00;;;35.20;61.10;;;;;;4919062;29;20948;-66
2022/08/02 09:16:39;;;;;;;4.40;4.10;;;35.10;60.00;;;;;;4919351;29;20457;-66
2022/08/02 09:19:20;;;;;;;4.20;3.90;;;35.00;61.60;;;;;;4919404;29;20464;-65
2022/08/02 09:21:51;;;;;;;3.87;3.67;;;34.80;61.70;;;;;;4919142;29;20488;-66
2022/08/02 09:24:19;;;;;;;4.30;3.90;;;35.10;62.50;;;;;;4919071;29;20931;-66
2022/08/02 09:26:47;;;;;;;4.67;4.20;;;36.00;60.40;;;;;;4919248;29;20463;-66
2022/08/02 09:29:15;;;;;;;4.30;3.90;;;36.80;59.10;;;;;;4919119;29;20484;-66
2022/08/02 09:31:42;;;;;;;3.93;3.73;;;37.50;58.10;;;;;;4919379;29;20587;-65
2022/08/02 09:34:11;;;;;;;3.90;3.70;;;38.10;56.60;;;;;;4918971;29;20513;-64
2022/08/02 09:36:40;;;;;;;4.23;3.97;;;38.60;55.20;;;;;;4919101;29;20465;-64
2022/08/02 09:39:10;;;;;;;3.73;3.60;;;39.20;53.20;;;;;;4920128;29;20886;-64
2022/08/02 09:41:39;;;;;;;3.80;3.60;;;39.00;54.30;;;;;;4919181;29;20876;-63
2022/08/02 09:44:08;;;;;;;4.27;4.00;;;38.70;54.20;;;;;;4920327;29;20490;-64
2022/08/02 09:46:37;;;;;;;4.17;3.97;;;38.20;54.30;;;;;;4921252;29;20947;-64
2022/08/02 09:49:07;;;;;;;4.10;3.90;;;38.50;52.70;;;;;;4926412;29;20457;-64
2022/08/02 09:51:35;;;;;;;4.40;4.00;;;38.50;53.20;;;;;;4925575;29;20889;-64
2022/08/02 09:54:04;;;;;;;4.60;4.20;;;38.60;52.30;;;;;;4918601;29;20467;-65
2022/08/02 09:56:45;;;;;;;4.40;3.47;;;38.40;52.40;;;;;;4919080;29;20515;-64
2022/08/02 09:59:13;;;;;;;3.83;3.63;;;37.70;53.00;;;;;;4919839;29;20444;-63
2022/08/02 10:01:40;;;;;;;3.63;3.43;;;37.10;53.30;;;;;;4918196;29;20488;-63
2022/08/02 10:04:10;;;;;;;4.13;3.87;;;37.20;54.20;;;;;;4918248;29;20460;-63
2022/08/02 10:06:38;;;;;;;4.43;4.13;;;37.50;54.70;;;;;;4918676;29;20559;-63
2022/08/02 10:09:06;;;;;;;3.80;3.57;;;37.50;53.60;;;;;;4918371;29;20467;-63
2022/08/02 10:11:34;;;;;;;3.97;3.53;;;37.80;53.00;;;;;;4918140;29;20485;-63
2022/08/02 10:14:03;;;;;;;3.77;3.50;;;38.20;53.10;;;;;;4918243;29;20453;-63
2022/08/02 10:16:32;;;;;;;4.17;3.90;;;38.70;51.90;;;;;;4917985;29;20461;-63
2022/08/02 10:19:01;;;;;;;4.00;3.70;;;39.20;50.60;;;;;;4918218;29;20465;-63
2022/08/02 10:21:32;;;;;;;4.03;3.83;;;39.60;49.80;;;;;;4918010;29;20477;-63
2022/08/02 10:24:05;;;;;;;4.90;4.43;;;39.10;49.20;;;;;;4918804;29;20469;-64
2022/08/02 10:26:33;;;;;;;4.10;3.80;;;37.70;50.70;;;;;;4918136;29;20457;-65
2022/08/02 10:28:59;;;;;;;6.87;3.77;;;36.80;52.70;;;;;;4917784;29;20487;-65
2022/08/02 10:31:34;;;;;;;3.57;3.27;;;37.30;51.90;;;;;;4918335;29;20484;-65
2022/08/02 10:34:06;;;;;;;4.00;3.80;;;37.40;51.10;;;;;;4918321;29;20437;-65
2022/08/02 10:36:35;;;;;;;3.50;3.30;;;37.60;51.10;;;;;;4917873;29;20437;-65
2022/08/02 10:39:02;;;;;;;4.13;3.73;;;38.10;51.90;;;;;;4917764;29;20952;-65
2022/08/02 10:41:43;;;;;;;4.20;3.90;;;38.60;50.00;;;;;;4917805;29;20544;-65
2022/08/02 10:44:20;;;;;;;4.10;3.50;;;38.70;50.10;;;;;;4917704;29;20508;-65
2022/08/02 10:46:49;;;;;;;3.50;3.30;;;39.00;49.10;;;;;;4917652;29;20463;-65
2022/08/02 10:49:18;;;;;;;5.13;3.30;;;39.10;49.70;;;;;;4917761;29;20468;-65
2022/08/02 10:51:58;;;;;;;3.50;3.30;;;39.40;48.30;;;;;;4917704;29;20477;-65
2022/08/02 10:54:27;;;;;;;4.13;3.73;;;39.30;50.00;;;;;;4917375;29;20955;-65
2022/08/02 10:56:55;;;;;;;3.67;3.37;;;39.40;48.30;;;;;;4917652;29;20457;-65
2022/08/02 10:59:27;;;;;;;3.27;3.07;;;39.40;49.00;;;;;;4917807;29;20456;-65
2022/08/02 11:02:01;;;;;;;3.80;3.60;;;39.40;48.60;;;;;;4916966;29;20560;-65
2022/08/02 11:04:32;;;;;;;3.40;3.20;;;39.40;47.90;;;;;;4917410;29;20445;-65
2022/08/02 11:07:14;;;;;;;3.50;3.20;;;38.90;48.90;;;;;;4920274;29;20924;-65
2022/08/02 11:09:41;;;;;;;4.70;3.57;;;38.80;48.40;;;;;;4921060;29;20983;-65
2022/08/02 11:12:09;;;;;;;4.70;3.87;;;38.50;48.40;;;;;;4920823;29;20484;-65
2022/08/02 11:14:38;;;;;;;3.30;3.10;;;38.10;49.10;;;;;;4921388;29;20499;-65
2022/08/02 11:17:09;;;;;;;4.00;3.57;;;38.20;49.20;;;;;;4921213;29;20823;-65
2022/08/02 11:19:56;;;;;;;5.23;4.83;;;38.50;49.10;;;;;;4920831;29;20783;-65
2022/08/02 11:22:24;;;;;;;2.50;2.40;;;38.80;48.00;;;;;;4920693;29;20491;-65
2022/08/02 11:24:50;;;;;;;3.13;2.97;;;38.80;46.30;;;;;;4921116;29;20464;-65
2022/08/02 11:27:19;;;;;;;4.27;3.80;;;38.60;47.10;;;;;;4921113;29;20493;-65
2022/08/02 11:29:47;;;;;;;3.53;3.23;;;38.30;46.40;;;;;;4920961;29;20809;-65
2022/08/02 11:32:17;;;;;;;7.43;3.60;;;38.30;48.10;;;;;;4920882;29;20567;-65
2022/08/02 11:34:46;;;;;;;3.93;3.53;;;38.30;47.50;;;;;;4921018;29;20457;-65
2022/08/02 11:37:13;;;;;;;3.00;2.80;;;38.40;47.20;;;;;;4920886;29;20463;-65
2022/08/02 11:39:49;;;;;;;3.20;3.10;;;38.00;47.20;;;;;;4920787;29;20461;-65
2022/08/02 11:42:16;;;;;;;3.50;3.30;;;37.50;47.80;;;;;;4921105;29;20498;-64
2022/08/02 11:44:45;;;;;;;3.20;3.10;;;36.90;49.40;;;;;;4920743;29;20456;-65
2022/08/02 11:47:12;;;;;;;3.70;3.50;;;36.50;50.10;;;;;;4920708;29;20457;-65
2022/08/02 11:49:39;;;;;;;4.10;3.80;;;36.40;49.10;;;;;;4920572;29;20457;-64
2022/08/02 11:52:09;;;;;;;4.50;3.30;;;36.20;50.70;;;;;;4920886;29;20477;-64
2022/08/02 11:54:39;;;;;;;3.27;3.07;;;35.90;50.90;;;;;;4920519;29;20457;-64
2022/08/02 11:57:16;;;;;;;4.03;3.50;;;35.60;51.10;;;;;;4920754;29;20457;-64
2022/08/02 11:59:44;;;;;;;3.60;3.33;;;35.30;52.80;;;;;;4920206;29;20911;-65
2022/08/02 12:02:11;;;;;;;3.47;3.27;;;35.00;52.00;;;;;;4920144;29;20485;-64
2022/08/02 12:04:39;;;;;;;3.20;2.97;;;34.70;53.40;;;;;;4920262;29;20824;-64
2022/08/02 12:07:07;;;;;;;3.13;3.00;;;34.60;52.90;;;;;;4919904;29;20461;-64
2022/08/02 12:09:36;;;;;;;3.50;3.30;;;34.20;53.70;;;;;;4920255;29;20457;-64
2022/08/02 12:12:03;;;;;;;3.80;3.60;;;33.90;54.40;;;;;;4920344;29;20483;-64
2022/08/02 12:14:32;;;;;;;3.20;3.00;;;33.20;54.40;;;;;;4920238;29;20492;-64
2022/08/02 12:19:44;;;;;;;10.40;9.60;;;32.20;58.80;;;;;;4920467;29;20462;-64
2022/08/02 12:22:16;;;;;;;3.40;3.07;;;32.10;56.70;;;;;;4920092;29;20477;-64
2022/08/02 12:24:45;;;;;;;3.17;3.07;;;32.20;56.10;;;;;;4920153;29;20488;-65
2022/08/02 12:27:31;;;;;;;3.23;2.90;;;32.30;55.70;;;;;;4920779;29;20457;-65
2022/08/02 12:30:06;;;;;;;3.17;2.93;;;32.70;54.90;;;;;;4920191;29;20778;-65
2022/08/02 12:32:33;;;;;;;3.03;2.83;;;33.00;54.50;;;;;;4920085;29;20483;-65
2022/08/02 12:35:09;;;;;;;3.13;3.00;;;33.20;54.30;;;;;;4919831;29;20459;-65
2022/08/02 12:37:37;;;;;;;2.87;2.77;;;33.40;52.50;;;;;;4919582;29;20464;-65
2022/08/02 12:40:29;;;;;;;3.50;2.40;;;33.60;53.70;;;;;;4919423;29;20460;-65
2022/08/02 12:42:58;;;;;;;2.67;2.57;;;33.80;52.40;;;;;;4919949;29;20888;-65
2022/08/02 12:45:28;;;;;;;2.50;2.40;;;33.80;51.10;;;;;;4919673;29;20461;-65
2022/08/02 12:47:56;;;;;;;2.90;2.80;;;33.60;51.10;;;;;;4920582;29;20461;-65
2022/08/02 12:50:26;;;;;;;2.93;2.50;;;33.60;51.00;;;;;;4919576;29;20464;-65
2022/08/02 12:53:04;;;;;;;3.17;3.00;;;33.70;51.50;;;;;;4919487;29;20457;-65
2022/08/02 12:55:31;;;;;;;3.00;2.80;;;33.30;53.60;;;;;;4919496;29;20441;-65
2022/08/02 12:58:00;;;;;;;2.83;2.60;;;33.30;54.10;;;;;;4919602;29;20457;-66
2022/08/02 13:00:30;;;;;;;3.33;3.13;;;33.40;53.80;;;;;;4919587;29;20457;-64
2022/08/02 13:02:58;;;;;;;4.03;2.50;;;33.60;54.10;;;;;;4919885;29;20469;-65
2022/08/02 13:05:25;;;;;;;3.03;2.83;;;33.90;53.40;;;;;;4919236;29;20464;-65
2022/08/02 13:07:52;;;;;;;3.07;2.90;;;34.10;53.80;;;;;;4919719;29;20468;-65
2022/08/02 13:10:20;;;;;;;2.90;2.70;;;33.80;52.40;;;;;;4919568;29;20453;-65
2022/08/02 13:12:47;;;;;;;3.80;3.50;;;33.80;52.20;;;;;;4919360;29;20799;-65
2022/08/02 13:15:15;;;;;;;3.37;2.90;;;33.80;52.80;;;;;;4919296;29;20457;-66
2022/08/02 13:17:43;;;;;;;2.67;2.57;;;33.50;52.10;;;;;;4919432;29;20460;-65
2022/08/02 13:20:10;;;;;;;3.97;2.67;;;33.70;52.80;;;;;;4918902;29;20457;-66
2022/08/02 13:22:37;;;;;;;3.33;3.13;;;33.80;51.10;;;;;;4919097;29;20488;-66
2022/08/02 13:25:05;;;;;;;2.70;2.60;;;33.90;51.90;;;;;;4919097;29;20453;-65
2022/08/02 13:27:32;;;;;;;2.77;2.57;;;34.10;51.40;;;;;;4919151;29;20452;-66
2022/08/02 13:30:00;;;;;;;3.07;2.83;;;34.30;50.90;;;;;;4919161;29;20476;-65
2022/08/02 13:32:28;;;;;;;2.80;2.70;;;34.40;51.30;;;;;;4918928;29;20476;-65
2022/08/02 13:34:57;;;;;;;1.90;1.90;;;34.50;50.80;;;;;;4918845;29;20916;-65
2022/08/02 13:37:24;;;;;;;6.47;2.13;;;34.50;50.00;;;;;;4919065;29;20480;-66
2022/08/02 13:39:50;;;;;;;3.00;1.93;;;34.60;50.20;;;;;;4919077;29;20453;-66
2022/08/02 13:42:18;;;;;;;5.37;2.40;;;34.60;49.00;;;;;;4918740;29;20491;-66
2022/08/02 13:44:44;;;;;;;3.23;2.93;;;34.50;50.60;;;;;;4918700;29;20477;-66
2022/08/02 13:47:11;;;;;;;2.93;2.50;;;34.40;51.40;;;;;;4919126;29;20461;-67
2022/08/02 13:49:38;;;;;;;4.83;2.80;;;34.30;51.30;;;;;;4918584;29;20548;-67
2022/08/02 13:52:06;;;;;;;2.57;2.37;;;34.20;52.00;;;;;;4918887;29;20972;-66
2022/08/02 13:54:33;;;;;;;2.70;2.60;;;34.20;52.00;;;;;;4919813;29;20464;-66
2022/08/02 13:57:00;;;;;;;2.80;2.60;;;33.90;51.60;;;;;;4918688;29;20468;-66
2022/08/02 13:59:27;;;;;;;2.70;2.50;;;33.70;52.10;;;;;;4918707;29;20483;-66
2022/08/02 14:01:55;;;;;;;2.60;2.50;;;33.60;52.80;;;;;;4918655;29;20485;-65
2022/08/02 14:04:22;;;;;;;2.77;2.33;;;33.40;51.20;;;;;;4918805;29;20572;-64
2022/08/02 14:06:49;;;;;;;2.60;2.50;;;33.00;52.80;;;;;;4918173;29;20480;-65
2022/08/02 14:09:17;;;;;;;2.60;2.50;;;32.90;52.30;;;;;;4918305;29;20461;-65
2022/08/02 14:11:44;;;;;;;2.80;2.57;;;32.90;52.10;;;;;;4918112;29;20484;-63
2022/08/02 14:14:11;;;;;;;3.47;2.83;;;33.00;51.60;;;;;;4917946;29;20465;-63
2022/08/02 14:16:37;;;;;;;2.67;2.57;;;33.00;50.90;;;;;;4918044;29;20461;-63
2022/08/02 14:19:04;;;;;;;2.43;2.33;;;32.90;51.60;;;;;;4918096;29;20816;-63
2022/08/02 14:21:31;;;;;;;2.73;2.53;;;33.00;51.50;;;;;;4917599;29;20509;-63
2022/08/02 14:23:58;;;;;;;3.23;2.50;;;32.90;51.20;;;;;;4917654;29;20481;-63
2022/08/02 14:26:26;;;;;;;2.97;2.87;;;32.90;51.80;;;;;;4918191;29;20512;-62
2022/08/02 14:28:52;;;;;;;3.00;2.80;;;32.90;51.70;;;;;;4918019;29;20457;-62
2022/08/02 14:31:19;;;;;;;2.90;2.70;;;33.00;51.80;;;;;;4917880;29;20484;-62
2022/08/02 14:33:46;;;;;;;2.60;2.50;;;33.10;51.20;;;;;;4917896;29;20457;-62
2022/08/02 14:36:12;;;;;;;2.67;2.47;;;33.30;51.30;;;;;;4917827;29;20464;-62
2022/08/02 14:38:39;;;;;;;2.40;2.30;;;33.30;51.00;;;;;;4917896;29;20464;-62
2022/08/02 14:41:06;;;;;;;2.80;2.60;;;33.30;50.50;;;;;;4917062;29;20477;-62
2022/08/02 14:46:18;;;;;;;2.90;2.70;;;33.20;50.20;;;;;;4918507;29;20432;-63
2022/08/02 14:48:45;;;;;;;2.67;2.57;;;33.30;51.20;;;;;;4918305;29;20444;-63
2022/08/02 14:51:12;;;;;;;3.40;2.27;;;33.20;51.70;;;;;;4917559;29;20481;-62
2022/08/02 14:53:39;;;;;;;3.47;2.57;;;33.20;51.30;;;;;;4917523;29;20459;-62
2022/08/02 14:56:06;;;;;;;2.70;2.13;;;33.30;51.70;;;;;;4917781;29;20457;-62
2022/08/02 14:58:34;;;;;;;2.87;2.47;;;33.50;51.20;;;;;;4917573;29;20464;-63
2022/08/02 15:01:01;;;;;;;2.60;2.40;;;33.70;50.40;;;;;;4917096;29;20493;-63
2022/08/02 15:03:27;;;;;;;2.47;2.27;;;33.80;50.90;;;;;;4916935;29;20821;-63
2022/08/02 15:05:54;;;;;;;3.03;2.43;;;33.90;50.80;;;;;;4917434;29;20468;-62
2022/08/02 15:08:21;;;;;;;2.40;2.30;;;34.00;49.70;;;;;;4917220;29;20955;-62
2022/08/02 15:10:48;;;;;;;2.20;2.10;;;34.00;49.50;;;;;;4917408;29;20480;-62
2022/08/02 15:13:14;;;;;;;2.70;2.50;;;34.00;49.50;;;;;;4917793;29;20453;-62
2022/08/02 15:15:43;;;;;;;3.23;3.13;;;34.00;49.30;;;;;;4917404;29;20456;-62
2022/08/02 15:18:09;;;;;;;2.63;2.37;;;33.90;49.60;;;;;;4917564;29;20457;-62
2022/08/02 15:20:36;;;;;;;2.53;2.43;;;33.80;49.80;;;;;;4917428;29;20477;-62
2022/08/02 15:23:03;;;;;;;2.27;2.17;;;33.80;49.70;;;;;;4917427;29;20461;-65
2022/08/02 15:25:29;;;;;;;2.67;2.47;;;33.80;50.40;;;;;;4917255;29;20491;-65
2022/08/02 15:27:56;;;;;;;2.30;2.20;;;33.60;49.70;;;;;;4917311;29;20464;-65
2022/08/02 15:30:23;;;;;;;2.47;2.33;;;33.60;50.40;;;;;;4917368;29;20461;-63
2022/08/02 15:32:51;;;;;;;3.43;2.30;;;33.60;50.60;;;;;;4917731;29;20445;-63
2022/08/02 15:35:18;;;;;;;4.50;3.07;;;33.70;50.10;;;;;;4917286;29;20473;-63
2022/08/02 15:37:44;;;;;;;2.83;2.60;;;33.80;49.80;;;;;;4916893;29;20463;-62
2022/08/02 15:40:12;;;;;;;2.87;2.63;;;33.60;49.30;;;;;;4917157;29;20944;-64
2022/08/02 15:42:39;;;;;;;2.30;2.20;;;33.60;49.70;;;;;;4917043;29;20476;-64
2022/08/02 15:45:06;;;;;;;2.37;2.23;;;33.60;50.30;;;;;;4917497;29;21025;-65
2022/08/02 15:47:33;;;;;;;3.67;2.53;;;33.30;51.10;;;;;;4917336;29;20461;-65
2022/08/02 15:50:01;;;;;;;2.77;2.57;;;32.90;49.80;;;;;;4917271;29;20456;-65
2022/08/02 15:52:28;;;;;;;2.70;2.50;;;32.60;50.00;;;;;;4917758;29;20480;-65
2022/08/02 15:54:56;;;;;;;2.43;2.33;;;32.30;51.10;;;;;;4921041;29;20434;-65
2022/08/02 15:57:23;;;;;;;2.60;2.50;;;32.10;51.60;;;;;;4920688;29;20457;-65
2022/08/02 15:59:51;;;;;;;2.70;2.60;;;32.10;51.70;;;;;;4920677;29;20516;-65
2022/08/02 16:02:19;;;;;;;2.50;2.30;;;32.20;51.00;;;;;;4920446;29;20568;-64
2022/08/02 16:04:45;;;;;;;2.80;2.70;;;32.30;51.20;;;;;;4920482;29;20572;-63
2022/08/02 16:07:14;;;;;;;2.73;2.07;;;32.30;52.10;;;;;;4920342;29;20967;-65
2022/08/02 16:09:41;;;;;;;2.83;2.73;;;32.40;52.00;;;;;;4920434;29;20852;-65
2022/08/02 16:12:07;;;;;;;2.43;2.33;;;32.60;52.20;;;;;;4920608;29;20504;-65
2022/08/02 16:14:34;;;;;;;2.80;2.60;;;32.70;51.40;;;;;;4920238;29;20457;-65
2022/08/02 16:17:01;;;;;;;2.73;2.63;;;32.70;51.60;;;;;;4919917;29;20985;-66
2022/08/02 16:19:28;;;;;;;4.20;2.23;;;32.80;51.80;;;;;;4920231;29;20465;-65
2022/08/02 16:21:55;;;;;;;2.27;2.17;;;32.70;50.60;;;;;;4920129;29;20483;-65
2022/08/02 16:24:23;;;;;;;2.80;2.60;;;32.70;50.60;;;;;;4920434;29;20477;-62
2022/08/02 16:26:49;;;;;;;3.13;2.50;;;32.40;51.00;;;;;;4919714;29;20944;-63
2022/08/02 16:29:18;;;;;;;2.40;2.30;;;32.40;52.00;;;;;;4920038;29;20465;-63
2022/08/02 16:31:45;;;;;;;2.83;2.23;;;32.40;51.10;;;;;;4919930;29;20535;-63
2022/08/02 16:34:11;;;;;;;3.60;2.67;;;32.50;52.00;;;;;;4919905;29;20464;-63
2022/08/02 16:36:38;;;;;;;2.63;2.53;;;32.30;51.10;;;;;;4919752;29;20461;-63
2022/08/02 16:39:05;;;;;;;2.90;2.70;;;32.30;52.10;;;;;;4919870;29;20461;-62
2022/08/02 16:41:33;;;;;;;2.53;2.37;;;32.30;51.70;;;;;;4919644;29;20477;-63
2022/08/02 16:44:00;;;;;;;2.47;2.37;;;32.20;51.90;;;;;;4919497;29;20468;-63
2022/08/02 16:46:27;;;;;;;2.70;2.60;;;32.00;51.90;;;;;;4919545;29;20518;-63
2022/08/02 16:48:53;;;;;;;4.03;2.50;;;31.90;53.00;;;;;;4919313;29;20453;-63
2022/08/02 16:51:20;;;;;;;2.20;2.00;;;31.90;52.80;;;;;;4919679;29;20504;-63
2022/08/02 16:53:47;;;;;;;2.93;2.73;;;31.80;51.80;;;;;;4919368;29;20457;-64
2022/08/02 16:56:13;;;;;;;2.90;2.63;;;31.70;51.80;;;;;;4919579;29;20464;-64
2022/08/02 16:58:42;;;;;;;2.30;2.20;;;31.70;52.50;;;;;;4919202;29;20457;-63
2022/08/02 17:01:08;;;;;;;2.60;2.40;;;31.70;52.30;;;;;;4919165;29;20489;-63